createdAt,value
2023-11-23T00:00:19.420Z,8.10
2023-11-23T00:00:52.462Z,8.13
2023-11-23T00:01:24.250Z,8.70
2023-11-23T00:01:56.081Z,9.03
2023-11-23T00:02:27.914Z,8.85
2023-11-23T00:02:59.733Z,9.02
2023-11-23T00:03:31.487Z,8.35
2023-11-23T00:04:03.401Z,8.82
2023-11-23T00:04:35.280Z,8.98
2023-11-23T00:05:08.476Z,8.80
2023-11-23T00:05:40.203Z,8.80
2023-11-23T00:06:11.927Z,9.02
2023-11-23T00:06:43.771Z,8.70
2023-11-23T00:07:15.552Z,9.23
2023-11-23T00:07:47.257Z,8.53
2023-11-23T00:08:18.954Z,8.68
2023-11-23T00:08:50.728Z,8.77
2023-11-23T00:09:22.640Z,8.82
2023-11-23T00:09:54.399Z,9.20
2023-11-23T00:10:26.266Z,9.13
2023-11-23T00:10:58.001Z,8.13
2023-11-23T00:11:29.779Z,9.15
2023-11-23T00:12:01.659Z,8.65
2023-11-23T00:12:33.504Z,8.52
2023-11-23T00:13:05.272Z,8.80
2023-11-23T00:13:37.058Z,8.65
2023-11-23T00:14:08.784Z,8.77
2023-11-23T00:14:40.720Z,9.23
2023-11-23T00:15:12.690Z,8.60
2023-11-23T00:15:44.493Z,7.85
2023-11-23T00:16:17.649Z,8.20
2023-11-23T00:16:49.406Z,8.30
2023-11-23T00:17:21.238Z,8.30
2023-11-23T00:17:52.993Z,9.23
2023-11-23T00:18:24.809Z,9.25
2023-11-23T00:18:56.744Z,8.55
2023-11-23T00:19:28.499Z,8.35
2023-11-23T00:20:00.461Z,8.85
2023-11-23T00:20:32.194Z,8.25
2023-11-23T00:21:03.923Z,8.73
2023-11-23T00:21:35.713Z,8.50
2023-11-23T00:22:07.608Z,8.55
2023-11-23T00:22:39.561Z,7.97
2023-11-23T00:23:11.370Z,8.70
2023-11-23T00:23:43.198Z,8.48
2023-11-23T00:24:15.006Z,8.57
2023-11-23T00:24:46.724Z,8.40
2023-11-23T00:25:18.422Z,8.80
2023-11-23T00:25:50.196Z,8.82
2023-11-23T00:26:22.039Z,8.60
2023-11-23T00:27:01.466Z,8.45
2023-11-23T00:27:33.342Z,8.50
2023-11-23T00:28:05.139Z,8.55
2023-11-23T00:28:36.868Z,8.32
2023-11-23T00:29:08.805Z,8.85
2023-11-23T00:29:40.531Z,8.93
2023-11-23T00:30:13.360Z,9.00
2023-11-23T00:30:45.256Z,9.20
2023-11-23T00:31:18.359Z,8.82
2023-11-23T00:31:50.128Z,9.00
2023-11-23T00:32:21.832Z,8.55
2023-11-23T00:32:53.756Z,9.15
2023-11-23T00:33:25.685Z,8.88
2023-11-23T00:33:57.717Z,9.27
2023-11-23T00:34:29.536Z,8.45
2023-11-23T00:35:01.245Z,9.23
2023-11-23T00:35:32.991Z,9.95
2023-11-23T00:36:05.287Z,9.05
2023-11-23T00:36:37.060Z,8.85
2023-11-23T00:37:08.900Z,8.65
2023-11-23T00:37:40.665Z,8.70
2023-11-23T00:38:12.485Z,8.50
2023-11-23T00:38:44.380Z,8.73
2023-11-23T00:39:16.402Z,9.02
2023-11-23T00:39:48.139Z,8.88
2023-11-23T00:40:20.012Z,9.10
2023-11-23T00:40:51.761Z,8.50
2023-11-23T00:41:23.688Z,8.57
2023-11-23T00:41:55.469Z,8.57
2023-11-23T00:42:27.261Z,8.87
2023-11-23T00:42:58.981Z,8.15
2023-11-23T00:43:30.757Z,8.05
2023-11-23T00:44:02.546Z,7.95
2023-11-23T00:44:34.299Z,8.05
2023-11-23T00:45:07.613Z,8.00
2023-11-23T00:45:39.414Z,8.20
2023-11-23T00:46:11.127Z,8.65
2023-11-23T00:46:44.261Z,8.80
2023-11-23T00:47:15.981Z,8.52
2023-11-23T00:47:47.880Z,8.48
2023-11-23T00:48:19.801Z,8.43
2023-11-23T00:48:51.581Z,8.73
2023-11-23T00:49:23.369Z,8.27
2023-11-23T00:49:55.214Z,7.55
2023-11-23T00:50:27.048Z,7.65
2023-11-23T00:50:58.865Z,8.00
2023-11-23T00:51:30.645Z,7.93
2023-11-23T00:52:02.494Z,8.13
2023-11-23T00:52:34.264Z,7.95
2023-11-23T00:53:06.009Z,8.50
2023-11-23T00:53:38.034Z,8.60
2023-11-23T00:54:09.829Z,8.63
2023-11-23T00:54:41.602Z,8.27
2023-11-23T00:55:13.376Z,8.50
2023-11-23T00:55:45.123Z,8.13
2023-11-23T00:56:16.948Z,8.00
2023-11-23T00:56:48.848Z,8.15
2023-11-23T00:57:20.655Z,8.05
2023-11-23T00:57:52.429Z,8.38
2023-11-23T00:58:24.337Z,8.45
2023-11-23T00:58:56.027Z,7.93
2023-11-23T00:59:27.787Z,8.25
2023-11-23T00:59:59.661Z,8.38
2023-11-23T01:00:31.430Z,7.90
2023-11-23T01:01:04.999Z,8.38
2023-11-23T01:01:36.811Z,7.95
2023-11-23T01:02:10.192Z,7.50
2023-11-23T01:02:42.200Z,8.40
2023-11-23T01:03:14.369Z,7.93
2023-11-23T01:03:46.645Z,7.85
2023-11-23T01:04:18.601Z,8.68
2023-11-23T01:04:50.329Z,7.82
2023-11-23T01:05:22.133Z,7.65
2023-11-23T01:05:53.873Z,8.30
2023-11-23T01:06:25.575Z,7.53
2023-11-23T01:06:57.938Z,7.35
2023-11-23T01:07:29.722Z,7.80
2023-11-23T01:08:01.447Z,7.28
2023-11-23T01:08:33.275Z,7.70
2023-11-23T01:09:05.027Z,7.60
2023-11-23T01:09:36.774Z,7.90
2023-11-23T01:10:09.181Z,8.07
2023-11-23T01:10:41.123Z,8.18
2023-11-23T01:11:12.950Z,8.73
2023-11-23T01:11:44.749Z,7.78
2023-11-23T01:12:16.608Z,7.90
2023-11-23T01:12:49.144Z,7.03
2023-11-23T01:13:20.871Z,8.02
2023-11-23T01:13:52.645Z,8.23
2023-11-23T01:14:24.426Z,8.30
2023-11-23T01:14:56.154Z,7.65
2023-11-23T01:15:27.921Z,7.95
2023-11-23T01:15:59.684Z,7.80
2023-11-23T01:16:31.516Z,7.63
2023-11-23T01:17:03.417Z,7.60
2023-11-23T01:17:37.002Z,7.43
2023-11-23T01:18:08.856Z,7.28
2023-11-23T01:18:40.688Z,7.28
2023-11-23T01:19:12.811Z,7.63
2023-11-23T01:19:44.521Z,6.85
2023-11-23T01:20:16.315Z,7.30
2023-11-23T01:20:48.142Z,7.47
2023-11-23T01:21:19.856Z,7.82
2023-11-23T01:21:51.617Z,7.50
2023-11-23T01:22:23.294Z,7.57
2023-11-23T01:22:55.674Z,7.30
2023-11-23T01:23:27.459Z,7.20
2023-11-23T01:23:59.210Z,7.10
2023-11-23T01:24:30.930Z,7.38
2023-11-23T01:25:02.888Z,7.30
2023-11-23T01:25:34.637Z,6.70
2023-11-23T01:26:07.069Z,7.93
2023-11-23T01:26:39.089Z,7.72
2023-11-23T01:27:10.916Z,7.30
2023-11-23T01:27:42.649Z,7.07
2023-11-23T01:28:14.388Z,7.45
2023-11-23T01:28:46.197Z,7.47
2023-11-23T01:29:17.970Z,7.85
2023-11-23T01:29:49.839Z,7.15
2023-11-23T01:30:21.747Z,7.95
2023-11-23T01:30:53.475Z,7.65
2023-11-23T01:31:25.196Z,7.72
2023-11-23T01:31:56.971Z,7.45
2023-11-23T01:32:28.726Z,7.13
2023-11-23T01:33:01.927Z,7.15
2023-11-23T01:33:33.859Z,7.75
2023-11-23T01:34:05.813Z,7.28
2023-11-23T01:34:37.613Z,7.10
2023-11-23T01:35:09.535Z,7.15
2023-11-23T01:35:41.418Z,7.35
2023-11-23T01:36:13.377Z,7.57
2023-11-23T01:36:45.095Z,7.47
2023-11-23T01:37:16.846Z,7.00
2023-11-23T01:37:48.702Z,7.82
2023-11-23T01:38:20.555Z,7.35
2023-11-23T01:38:52.329Z,6.65
2023-11-23T01:39:24.109Z,7.40
2023-11-23T01:39:55.844Z,7.53
2023-11-23T01:40:27.593Z,7.85
2023-11-23T01:40:59.354Z,7.97
2023-11-23T01:41:31.104Z,7.70
2023-11-23T01:42:02.958Z,7.20
2023-11-23T01:42:34.785Z,7.32
2023-11-23T01:43:07.514Z,7.43
2023-11-23T01:43:39.253Z,8.05
2023-11-23T01:44:11.059Z,7.72
2023-11-23T01:44:42.901Z,8.07
2023-11-23T01:45:14.847Z,7.40
2023-11-23T01:45:46.710Z,7.80
2023-11-23T01:46:18.550Z,7.15
2023-11-23T01:46:50.473Z,7.75
2023-11-23T01:47:22.425Z,8.68
2023-11-23T01:47:54.628Z,8.68
2023-11-23T01:48:28.462Z,8.20
2023-11-23T01:49:01.545Z,8.38
2023-11-23T01:49:34.732Z,8.00
2023-11-23T01:50:08.869Z,8.57
2023-11-23T01:50:42.048Z,7.88
2023-11-23T01:51:14.829Z,8.43
2023-11-23T01:51:46.924Z,7.75
2023-11-23T01:52:18.881Z,8.43
2023-11-23T01:52:50.777Z,8.68
2023-11-23T01:53:23.118Z,8.52
2023-11-23T01:53:55.163Z,8.45
2023-11-23T01:54:27.387Z,8.48
2023-11-23T01:54:59.334Z,8.20
2023-11-23T01:55:31.266Z,7.95
2023-11-23T01:56:03.398Z,8.70
2023-11-23T01:56:35.905Z,8.60
2023-11-23T01:57:08.391Z,9.20
2023-11-23T01:57:40.430Z,7.97
2023-11-23T01:58:17.282Z,8.73
2023-11-23T01:58:49.499Z,8.68
2023-11-23T01:59:21.259Z,9.65
2023-11-23T01:59:53.143Z,9.18
2023-11-23T02:00:25.087Z,8.98
2023-11-23T02:00:57.038Z,9.40
2023-11-23T02:01:29.030Z,8.93
2023-11-23T02:02:01.089Z,9.50
2023-11-23T02:02:32.950Z,8.75
2023-11-23T02:03:05.999Z,9.88
2023-11-23T02:03:39.966Z,9.65
2023-11-23T02:04:12.037Z,9.90
2023-11-23T02:04:43.890Z,9.93
2023-11-23T02:05:16.948Z,9.90
2023-11-23T02:05:48.671Z,10.02
2023-11-23T02:06:20.428Z,10.02
2023-11-23T02:06:52.268Z,10.00
2023-11-23T02:07:24.071Z,9.90
2023-11-23T02:07:56.416Z,9.68
2023-11-23T02:08:28.198Z,10.20
2023-11-23T02:09:00.312Z,10.25
2023-11-23T02:09:32.125Z,10.27
2023-11-23T02:10:04.361Z,9.87
2023-11-23T02:10:36.385Z,9.38
2023-11-23T02:11:08.251Z,9.45
2023-11-23T02:11:40.298Z,9.57
2023-11-23T02:12:12.219Z,9.83
2023-11-23T02:12:45.233Z,10.10
2023-11-23T02:13:17.204Z,10.75
2023-11-23T02:13:49.165Z,10.20
2023-11-23T02:14:21.083Z,10.02
2023-11-23T02:14:54.957Z,10.07
2023-11-23T02:15:26.718Z,10.32
2023-11-23T02:15:58.497Z,10.95
2023-11-23T02:16:30.321Z,10.40
2023-11-23T02:17:15.011Z,9.80
2023-11-23T02:17:46.939Z,10.25
2023-11-23T02:18:18.799Z,10.45
2023-11-23T02:18:52.140Z,10.60
2023-11-23T02:19:23.855Z,10.25
2023-11-23T02:19:55.573Z,9.77
2023-11-23T02:20:27.287Z,9.98
2023-11-23T02:20:59.705Z,10.10
2023-11-23T02:21:31.603Z,10.55
2023-11-23T02:22:03.426Z,10.00
2023-11-23T02:22:35.334Z,10.68
2023-11-23T02:23:07.123Z,9.75
2023-11-23T02:23:39.022Z,9.82
2023-11-23T02:24:13.266Z,10.30
2023-11-23T02:24:45.591Z,10.25
2023-11-23T02:25:17.292Z,9.88
2023-11-23T02:25:49.051Z,10.63
2023-11-23T02:26:20.783Z,10.40
2023-11-23T02:26:52.573Z,10.40
2023-11-23T02:27:24.263Z,10.23
2023-11-23T02:27:56.114Z,10.20
2023-11-23T02:28:28.093Z,10.00
2023-11-23T02:28:59.844Z,10.57
2023-11-23T02:29:31.576Z,10.35
2023-11-23T02:30:03.849Z,10.05
2023-11-23T02:30:35.624Z,10.70
2023-11-23T02:31:07.406Z,10.43
2023-11-23T02:31:39.173Z,10.18
2023-11-23T02:32:11.249Z,10.43
2023-11-23T02:32:43.036Z,9.90
2023-11-23T02:33:14.997Z,10.60
2023-11-23T02:33:46.812Z,11.02
2023-11-23T02:34:18.514Z,10.38
2023-11-23T02:34:50.281Z,10.60
2023-11-23T02:35:22.291Z,10.25
2023-11-23T02:35:54.317Z,11.30
2023-11-23T02:36:26.076Z,10.90
2023-11-23T02:36:57.746Z,10.40
2023-11-23T02:37:29.624Z,10.52
2023-11-23T02:38:01.328Z,11.10
2023-11-23T02:38:33.031Z,10.13
2023-11-23T02:39:04.876Z,11.10
2023-11-23T02:39:37.973Z,10.63
2023-11-23T02:40:10.614Z,10.70
2023-11-23T02:40:42.342Z,11.20
2023-11-23T02:41:14.057Z,10.85
2023-11-23T02:41:45.959Z,10.32
2023-11-23T02:42:17.830Z,10.68
2023-11-23T02:42:49.638Z,10.88
2023-11-23T02:43:21.471Z,11.10
2023-11-23T02:43:53.321Z,11.32
2023-11-23T02:44:25.268Z,11.50
2023-11-23T02:44:57.025Z,11.45
2023-11-23T02:45:28.751Z,11.40
2023-11-23T02:46:00.587Z,10.88
2023-11-23T02:46:32.521Z,10.93
2023-11-23T02:47:04.763Z,10.98
2023-11-23T02:47:36.551Z,11.25
2023-11-23T02:48:08.585Z,10.55
2023-11-23T02:48:40.478Z,11.43
2023-11-23T02:49:12.243Z,10.65
2023-11-23T02:49:43.961Z,11.65
2023-11-23T02:50:15.884Z,11.93
2023-11-23T02:50:49.117Z,10.77
2023-11-23T02:51:20.855Z,12.15
2023-11-23T02:51:52.607Z,10.90
2023-11-23T02:52:24.340Z,11.48
2023-11-23T02:52:56.045Z,10.82
2023-11-23T02:53:27.845Z,11.93
2023-11-23T02:53:59.608Z,10.52
2023-11-23T02:54:31.481Z,11.60
2023-11-23T02:55:05.160Z,11.52
2023-11-23T02:55:36.916Z,10.43
2023-11-23T02:56:09.118Z,11.55
2023-11-23T02:56:41.135Z,10.98
2023-11-23T02:57:13.037Z,10.85
2023-11-23T02:57:44.807Z,11.23
2023-11-23T02:58:16.532Z,11.55
2023-11-23T02:58:48.373Z,10.77
2023-11-23T02:59:20.954Z,11.05
2023-11-23T02:59:52.868Z,11.30
2023-11-23T03:00:24.672Z,10.88
2023-11-23T03:00:56.517Z,11.38
2023-11-23T03:01:28.355Z,10.90
2023-11-23T03:02:00.301Z,10.80
2023-11-23T03:02:32.145Z,11.13
2023-11-23T03:03:03.986Z,11.23
2023-11-23T03:03:35.802Z,10.95
2023-11-23T03:04:07.646Z,11.02
2023-11-23T03:04:39.407Z,10.77
2023-11-23T03:05:11.305Z,11.07
2023-11-23T03:05:44.228Z,10.88
2023-11-23T03:06:16.078Z,10.48
2023-11-23T03:06:47.881Z,11.63
2023-11-23T03:07:19.604Z,10.65
2023-11-23T03:07:51.385Z,10.65
2023-11-23T03:08:23.132Z,10.93
2023-11-23T03:08:55.000Z,10.77
2023-11-23T03:09:26.933Z,11.32
2023-11-23T03:09:58.672Z,10.90
2023-11-23T03:10:31.714Z,10.60
2023-11-23T03:11:03.406Z,11.10
2023-11-23T03:11:35.226Z,10.63
2023-11-23T03:12:07.665Z,11.10
2023-11-23T03:12:39.491Z,10.57
2023-11-23T03:13:11.911Z,10.88
2023-11-23T03:13:43.589Z,11.13
2023-11-23T03:14:15.412Z,10.60
2023-11-23T03:14:47.158Z,10.25
2023-11-23T03:15:19.146Z,10.52
2023-11-23T03:15:51.446Z,10.60
2023-11-23T03:16:23.159Z,10.23
2023-11-23T03:16:55.174Z,10.32
2023-11-23T03:17:27.638Z,10.48
2023-11-23T03:17:59.549Z,10.55
2023-11-23T03:18:31.620Z,11.02
2023-11-23T03:19:03.593Z,10.77
2023-11-23T03:19:35.403Z,9.77
2023-11-23T03:20:07.938Z,10.13
2023-11-23T03:20:39.668Z,9.98
2023-11-23T03:21:11.481Z,10.67
2023-11-23T03:21:43.531Z,10.80
2023-11-23T03:22:15.312Z,10.75
2023-11-23T03:22:47.054Z,10.30
2023-11-23T03:23:18.868Z,10.45
2023-11-23T03:23:50.623Z,10.50
2023-11-23T03:24:22.500Z,10.70
2023-11-23T03:24:54.265Z,10.55
2023-11-23T03:25:26.196Z,10.15
2023-11-23T03:25:59.428Z,10.73
2023-11-23T03:26:31.177Z,10.30
2023-11-23T03:27:03.194Z,9.73
2023-11-23T03:27:35.035Z,9.40
2023-11-23T03:28:07.607Z,10.57
2023-11-23T03:28:39.345Z,9.70
2023-11-23T03:29:11.102Z,10.20
2023-11-23T03:29:42.910Z,9.90
2023-11-23T03:30:14.905Z,10.60
2023-11-23T03:30:46.666Z,10.82
2023-11-23T03:31:18.356Z,10.82
2023-11-23T03:31:50.115Z,10.67
2023-11-23T03:32:21.857Z,10.77
2023-11-23T03:32:55.227Z,10.23
2023-11-23T03:33:27.087Z,10.23
2023-11-23T03:33:58.934Z,10.50
2023-11-23T03:34:30.673Z,10.10
2023-11-23T03:35:02.807Z,11.20
2023-11-23T03:35:34.697Z,10.70
2023-11-23T03:36:07.476Z,11.05
2023-11-23T03:36:39.245Z,10.60
2023-11-23T03:37:11.115Z,10.57
2023-11-23T03:37:43.045Z,11.80
2023-11-23T03:38:14.943Z,10.65
2023-11-23T03:38:46.800Z,10.55
2023-11-23T03:39:18.938Z,11.05
2023-11-23T03:39:50.831Z,10.50
2023-11-23T03:40:22.668Z,10.40
2023-11-23T03:40:54.365Z,10.68
2023-11-23T03:41:27.501Z,10.70
2023-11-23T03:41:59.309Z,10.30
2023-11-23T03:42:31.100Z,10.50
2023-11-23T03:43:02.845Z,10.27
2023-11-23T03:43:34.561Z,10.30
2023-11-23T03:44:06.583Z,10.68
2023-11-23T03:44:38.302Z,11.15
2023-11-23T03:45:10.396Z,11.35
2023-11-23T03:45:42.220Z,11.23
2023-11-23T03:46:14.135Z,11.23
2023-11-23T03:46:45.862Z,11.23
2023-11-23T03:47:17.582Z,10.75
2023-11-23T03:47:49.649Z,11.60
2023-11-23T03:48:21.483Z,11.30
2023-11-23T03:48:53.999Z,10.87
2023-11-23T03:49:25.716Z,11.15
2023-11-23T03:49:57.406Z,11.23
2023-11-23T03:50:29.125Z,12.53
2023-11-23T03:51:01.102Z,12.48
2023-11-23T03:51:32.833Z,12.38
2023-11-23T03:52:05.283Z,11.88
2023-11-23T03:52:37.023Z,12.32
2023-11-23T03:53:08.765Z,12.10
2023-11-23T03:53:40.523Z,12.38
2023-11-23T03:54:12.313Z,12.50
2023-11-23T03:54:44.217Z,12.23
2023-11-23T03:55:15.967Z,11.40
2023-11-23T03:55:47.737Z,11.57
2023-11-23T03:56:19.523Z,10.82
2023-11-23T03:56:52.679Z,12.13
2023-11-23T03:57:24.522Z,11.25
2023-11-23T03:57:56.279Z,11.05
2023-11-23T03:58:27.957Z,10.80
2023-11-23T03:58:59.827Z,11.37
2023-11-23T03:59:31.560Z,10.65
2023-11-23T04:00:03.680Z,10.93
2023-11-23T04:00:37.116Z,11.43
2023-11-23T04:01:09.376Z,11.63
2023-11-23T04:01:44.889Z,11.20
2023-11-23T04:02:16.742Z,11.30
2023-11-23T04:02:48.715Z,10.82
2023-11-23T04:03:20.497Z,10.70
2023-11-23T04:03:52.354Z,11.17
2023-11-23T04:04:24.150Z,10.93
2023-11-23T04:04:56.025Z,11.60
2023-11-23T04:05:27.743Z,11.32
2023-11-23T04:05:59.527Z,10.48
2023-11-23T04:06:31.281Z,11.00
2023-11-23T04:07:03.234Z,11.07
2023-11-23T04:07:34.965Z,11.35
2023-11-23T04:08:06.650Z,11.23
2023-11-23T04:08:39.646Z,11.02
2023-11-23T04:09:11.351Z,11.13
2023-11-23T04:09:43.056Z,10.98
2023-11-23T04:10:15.022Z,11.55
2023-11-23T04:10:46.729Z,10.98
2023-11-23T04:11:18.459Z,11.88
2023-11-23T04:11:50.148Z,10.68
2023-11-23T04:12:23.224Z,11.45
2023-11-23T04:12:54.957Z,11.80
2023-11-23T04:13:26.828Z,12.02
2023-11-23T04:13:58.551Z,11.02
2023-11-23T04:14:30.250Z,12.20
2023-11-23T04:15:02.369Z,11.52
2023-11-23T04:15:34.152Z,11.50
2023-11-23T04:16:06.515Z,11.38
2023-11-23T04:16:38.235Z,11.98
2023-11-23T04:17:10.087Z,11.20
2023-11-23T04:17:41.848Z,12.20
2023-11-23T04:18:13.731Z,11.40
2023-11-23T04:18:45.684Z,11.63
2023-11-23T04:19:17.436Z,11.67
2023-11-23T04:19:49.224Z,11.95
2023-11-23T04:20:20.976Z,11.73
2023-11-23T04:20:52.816Z,12.40
2023-11-23T04:21:24.538Z,10.93
2023-11-23T04:21:56.300Z,11.95
2023-11-23T04:22:28.107Z,11.68
2023-11-23T04:22:59.971Z,12.77
2023-11-23T04:23:31.694Z,12.33
2023-11-23T04:24:03.949Z,12.23
2023-11-23T04:24:38.047Z,12.07
2023-11-23T04:25:09.978Z,11.70
2023-11-23T04:25:41.726Z,11.32
2023-11-23T04:26:13.667Z,12.10
2023-11-23T04:26:45.464Z,11.40
2023-11-23T04:27:17.303Z,11.88
2023-11-23T04:27:50.442Z,11.77
2023-11-23T04:28:22.145Z,11.60
2023-11-23T04:28:53.841Z,11.23
2023-11-23T04:29:25.542Z,11.32
2023-11-23T04:29:57.374Z,11.52
2023-11-23T04:30:29.163Z,12.23
2023-11-23T04:31:00.880Z,11.40
2023-11-23T04:31:32.628Z,12.23
2023-11-23T04:32:05.122Z,11.85
2023-11-23T04:32:36.893Z,11.95
2023-11-23T04:33:08.773Z,12.57
2023-11-23T04:33:40.626Z,11.15
2023-11-23T04:34:12.810Z,12.23
2023-11-23T04:34:44.570Z,12.20
2023-11-23T04:35:16.412Z,11.77
2023-11-23T04:35:48.097Z,12.20
2023-11-23T04:36:19.860Z,12.25
2023-11-23T04:36:51.568Z,11.98
2023-11-23T04:37:23.269Z,11.93
2023-11-23T04:37:55.003Z,12.52
2023-11-23T04:38:26.756Z,12.13
2023-11-23T04:38:58.541Z,12.60
2023-11-23T04:39:30.301Z,12.32
2023-11-23T04:40:02.003Z,11.93
2023-11-23T04:40:33.892Z,11.20
2023-11-23T04:41:05.882Z,11.48
2023-11-23T04:41:37.670Z,11.93
2023-11-23T04:42:09.476Z,12.60
2023-11-23T04:42:42.162Z,11.98
2023-11-23T04:43:15.453Z,12.48
2023-11-23T04:43:47.219Z,11.73
2023-11-23T04:44:19.028Z,11.88
2023-11-23T04:44:50.751Z,11.82
2023-11-23T04:45:22.581Z,11.52
2023-11-23T04:45:54.352Z,12.20
2023-11-23T04:46:26.188Z,11.60
2023-11-23T04:46:57.948Z,12.43
2023-11-23T04:47:30.013Z,11.93
2023-11-23T04:48:01.872Z,12.20
2023-11-23T04:48:33.747Z,11.73
2023-11-23T04:49:05.640Z,11.88
2023-11-23T04:49:37.349Z,12.13
2023-11-23T04:50:09.973Z,11.98
2023-11-23T04:50:41.715Z,12.20
2023-11-23T04:51:13.435Z,11.48
2023-11-23T04:51:45.145Z,12.27
2023-11-23T04:52:16.861Z,12.82
2023-11-23T04:52:48.588Z,12.57
2023-11-23T04:53:20.286Z,13.15
2023-11-23T04:53:52.143Z,12.80
2023-11-23T04:54:23.962Z,12.68
2023-11-23T04:54:55.678Z,12.60
2023-11-23T04:55:27.375Z,12.18
2023-11-23T04:55:59.140Z,12.90
2023-11-23T04:56:31.062Z,13.02
2023-11-23T04:57:03.046Z,12.30
2023-11-23T04:57:34.872Z,12.53
2023-11-23T04:58:06.629Z,12.52
2023-11-23T04:58:39.734Z,12.38
2023-11-23T04:59:11.474Z,12.15
2023-11-23T04:59:43.195Z,12.80
2023-11-23T05:00:15.788Z,12.20
2023-11-23T05:00:47.680Z,12.48
2023-11-23T05:01:21.766Z,11.95
2023-11-23T05:01:53.606Z,12.77
2023-11-23T05:02:25.377Z,12.10
2023-11-23T05:02:57.209Z,13.60
2023-11-23T05:03:29.276Z,13.45
2023-11-23T05:04:04.999Z,13.10
2023-11-23T05:04:37.653Z,12.97
2023-11-23T05:05:09.725Z,12.88
2023-11-23T05:05:41.588Z,13.13
2023-11-23T05:06:13.613Z,12.75
2023-11-23T05:06:45.489Z,13.07
2023-11-23T05:07:17.304Z,12.93
2023-11-23T05:07:49.170Z,13.38
2023-11-23T05:08:20.930Z,12.90
2023-11-23T05:08:52.708Z,12.85
2023-11-23T05:09:24.523Z,12.68
2023-11-23T05:09:56.265Z,13.07
2023-11-23T05:10:27.981Z,12.95
2023-11-23T05:10:59.778Z,13.50
2023-11-23T05:11:31.531Z,13.73
2023-11-23T05:12:03.763Z,13.50
2023-11-23T05:12:36.058Z,13.40
2023-11-23T05:13:07.893Z,13.27
2023-11-23T05:13:41.133Z,13.10
2023-11-23T05:14:12.984Z,13.10
2023-11-23T05:14:44.756Z,13.10
2023-11-23T05:15:16.661Z,13.23
2023-11-23T05:15:48.432Z,11.95
2023-11-23T05:16:20.254Z,12.60
2023-11-23T05:16:52.203Z,12.43
2023-11-23T05:17:24.108Z,12.80
2023-11-23T05:17:55.977Z,12.68
2023-11-23T05:18:27.832Z,12.77
2023-11-23T05:18:59.686Z,13.02
2023-11-23T05:19:39.783Z,13.27
2023-11-23T05:20:14.632Z,13.38
2023-11-23T05:20:46.413Z,13.50
2023-11-23T05:21:18.305Z,14.05
2023-11-23T05:21:50.005Z,13.20
2023-11-23T05:22:21.685Z,12.70
2023-11-23T05:22:53.565Z,13.13
2023-11-23T05:23:25.334Z,12.98
2023-11-23T05:23:59.005Z,12.25
2023-11-23T05:24:32.098Z,13.00
2023-11-23T05:25:04.600Z,12.80
2023-11-23T05:25:36.479Z,13.07
2023-11-23T05:26:08.274Z,12.90
2023-11-23T05:26:40.042Z,12.73
2023-11-23T05:27:11.881Z,13.77
2023-11-23T05:27:43.712Z,12.93
2023-11-23T05:28:15.466Z,13.77
2023-11-23T05:28:48.597Z,13.05
2023-11-23T05:29:20.343Z,12.52
2023-11-23T05:29:52.401Z,13.90
2023-11-23T05:30:24.413Z,13.20
2023-11-23T05:30:56.221Z,12.60
2023-11-23T05:31:28.097Z,13.13
2023-11-23T05:31:59.828Z,13.20
2023-11-23T05:32:31.565Z,13.73
2023-11-23T05:33:03.542Z,13.90
2023-11-23T05:33:35.456Z,13.55
2023-11-23T05:34:07.287Z,14.02
2023-11-23T05:34:39.017Z,14.23
2023-11-23T05:35:10.888Z,13.48
2023-11-23T05:35:42.712Z,13.45
2023-11-23T05:36:14.608Z,13.32
2023-11-23T05:36:46.349Z,13.63
2023-11-23T05:37:18.135Z,13.27
2023-11-23T05:37:49.905Z,14.27
2023-11-23T05:38:21.628Z,13.55
2023-11-23T05:38:53.709Z,13.23
2023-11-23T05:39:25.812Z,13.75
2023-11-23T05:39:57.754Z,13.30
2023-11-23T05:40:29.614Z,13.07
2023-11-23T05:41:01.409Z,13.48
2023-11-23T05:41:33.134Z,12.77
2023-11-23T05:42:05.345Z,13.38
2023-11-23T05:42:37.146Z,12.60
2023-11-23T05:43:08.870Z,13.55
2023-11-23T05:43:40.623Z,14.00
2023-11-23T05:44:13.699Z,13.95
2023-11-23T05:44:45.435Z,13.63
2023-11-23T05:45:17.276Z,13.20
2023-11-23T05:45:49.040Z,13.43
2023-11-23T05:46:20.787Z,13.75
2023-11-23T05:46:52.627Z,13.63
2023-11-23T05:47:24.400Z,13.88
2023-11-23T05:47:56.322Z,13.65
2023-11-23T05:48:28.263Z,13.63
2023-11-23T05:49:00.124Z,13.60
2023-11-23T05:49:31.975Z,13.05
2023-11-23T05:50:03.944Z,13.13
2023-11-23T05:50:35.673Z,13.25
2023-11-23T05:51:07.605Z,13.95
2023-11-23T05:51:39.337Z,14.20
2023-11-23T05:52:11.159Z,14.10
2023-11-23T05:52:43.182Z,14.52
2023-11-23T05:53:14.935Z,13.38
2023-11-23T05:53:46.661Z,13.38
2023-11-23T05:54:18.661Z,13.50
2023-11-23T05:54:50.401Z,13.13
2023-11-23T05:55:22.216Z,12.85
2023-11-23T05:55:53.931Z,13.23
2023-11-23T05:56:27.051Z,13.35
2023-11-23T05:56:58.882Z,13.57
2023-11-23T05:57:30.680Z,14.25
2023-11-23T05:58:02.447Z,13.50
2023-11-23T05:58:34.164Z,13.80
2023-11-23T05:59:05.930Z,13.55
2023-11-23T05:59:39.048Z,14.02
2023-11-23T06:00:12.269Z,13.57
2023-11-23T06:00:44.002Z,13.13
2023-11-23T06:01:15.987Z,13.88
2023-11-23T06:01:47.731Z,14.05
2023-11-23T06:02:19.692Z,13.93
2023-11-23T06:02:51.696Z,13.88
2023-11-23T06:03:25.408Z,13.68
2023-11-23T06:03:57.546Z,15.00
2023-11-23T06:04:29.589Z,13.75
2023-11-23T06:05:01.447Z,13.13
2023-11-23T06:05:33.367Z,13.25
2023-11-23T06:06:05.837Z,13.85
2023-11-23T06:06:37.593Z,13.68
2023-11-23T06:07:09.543Z,13.55
2023-11-23T06:07:41.288Z,13.80
2023-11-23T06:08:13.031Z,14.52
2023-11-23T06:08:44.755Z,13.45
2023-11-23T06:09:16.560Z,14.60
2023-11-23T06:09:48.431Z,13.93
2023-11-23T06:10:20.289Z,13.35
2023-11-23T06:10:52.086Z,14.20
2023-11-23T06:11:23.844Z,14.13
2023-11-23T06:11:55.573Z,14.75
2023-11-23T06:12:27.357Z,13.55
2023-11-23T06:12:59.119Z,13.60
2023-11-23T06:13:30.779Z,13.60
2023-11-23T06:14:02.620Z,14.25
2023-11-23T06:14:34.618Z,14.80
2023-11-23T06:15:09.550Z,14.43
2023-11-23T06:15:41.353Z,14.10
2023-11-23T06:16:13.466Z,14.07
2023-11-23T06:16:45.214Z,14.77
2023-11-23T06:17:16.904Z,13.95
2023-11-23T06:17:49.526Z,13.40
2023-11-23T06:18:21.953Z,13.60
2023-11-23T06:18:53.781Z,14.18
2023-11-23T06:19:25.549Z,14.50
2023-11-23T06:19:57.324Z,13.95
2023-11-23T06:20:29.158Z,13.82
2023-11-23T06:21:01.006Z,14.45
2023-11-23T06:21:32.795Z,14.38
2023-11-23T06:22:04.684Z,14.40
2023-11-23T06:22:36.475Z,14.75
2023-11-23T06:23:09.358Z,14.18
2023-11-23T06:23:41.239Z,13.57
2023-11-23T06:24:13.084Z,14.63
2023-11-23T06:24:44.826Z,14.45
2023-11-23T06:25:16.911Z,14.55
2023-11-23T06:25:48.661Z,14.48
2023-11-23T06:26:20.473Z,14.63
2023-11-23T06:26:52.894Z,15.43
2023-11-23T06:27:24.640Z,14.52
2023-11-23T06:28:05.016Z,13.85
2023-11-23T06:28:43.586Z,14.30
2023-11-23T06:54:33.147Z,15.52
2023-11-23T06:55:05.702Z,15.90
2023-11-23T06:55:37.423Z,15.50
2023-11-23T06:56:10.140Z,14.75
2023-11-23T06:56:42.025Z,14.98
2023-11-23T06:57:13.859Z,15.38
2023-11-23T06:57:45.639Z,14.88
2023-11-23T06:58:17.468Z,15.15
2023-11-23T06:58:52.583Z,15.43
2023-11-23T07:00:23.785Z,14.55
2023-11-23T07:00:55.737Z,14.63
2023-11-23T07:01:27.547Z,14.80
2023-11-23T07:01:59.529Z,14.73
2023-11-23T07:02:31.452Z,14.20
2023-11-23T07:03:03.567Z,14.60
2023-11-23T07:03:36.839Z,14.02
2023-11-23T07:04:08.780Z,15.02
2023-11-23T07:04:41.526Z,14.73
2023-11-23T07:05:13.366Z,14.88
2023-11-23T07:05:45.070Z,13.95
2023-11-23T07:06:16.946Z,14.15
2023-11-23T07:06:48.775Z,13.90
2023-11-23T07:07:20.477Z,14.50
2023-11-23T07:07:53.510Z,14.48
2023-11-23T07:08:25.222Z,15.18
2023-11-23T07:08:57.054Z,15.13
2023-11-23T07:09:28.856Z,16.52
2023-11-23T07:10:01.987Z,16.23
2023-11-23T07:10:33.918Z,15.77
2023-11-23T07:11:05.894Z,16.85
2023-11-23T07:11:37.681Z,17.25
2023-11-23T07:12:09.872Z,17.33
2023-11-23T07:12:42.226Z,17.17
2023-11-23T07:13:14.153Z,16.60
2023-11-23T07:13:46.124Z,16.02
2023-11-23T07:14:17.955Z,16.15
2023-11-23T07:14:49.786Z,15.95
2023-11-23T07:15:21.921Z,14.95
2023-11-23T07:15:54.134Z,15.20
2023-11-23T07:16:25.932Z,15.23
2023-11-23T07:16:57.758Z,15.15
2023-11-23T07:17:29.674Z,16.13
2023-11-23T07:18:01.624Z,16.23
2023-11-23T07:18:33.563Z,15.23
2023-11-23T07:19:05.588Z,15.23
2023-11-23T07:19:37.406Z,15.23
2023-11-23T07:20:09.825Z,15.20
2023-11-23T07:20:41.600Z,14.40
2023-11-23T07:21:13.633Z,14.68
2023-11-23T07:21:45.519Z,14.98
2023-11-23T07:22:17.419Z,14.57
2023-11-23T07:22:49.146Z,13.63
2023-11-23T07:23:21.034Z,14.57